HOT - SCOPE
in the School of Ocean and Earth Science and Technology at the University of Hawai'i



Xeos # 1 : IMEI 51020 (s/n 77)
GMT GMT Latitude Longitude Speed Head SNR HDOP Batt(u) Batt(l)
date time deg N deg W knots deg volts volts
11-20-2017 1:00:13 21o 18.895' ( 21.3149) 157o 52.629' (-157.8772) 0.0 0 49 1.0 3.60 2.94
11-20-2017 0:00:36 21o 18.896' ( 21.3149) 157o 52.627' (-157.8771) 0.0 0 49 0.6 3.57 2.94
11-19-2017 23:00:12 21o 18.897' ( 21.3149) 157o 52.627' (-157.8771) 0.1 0 46 1.4 3.60 2.94
11-19-2017 22:00:11 21o 18.896' ( 21.3149) 157o 52.630' (-157.8772) 0.0 0 46 0.8 3.60 3.00
11-19-2017 21:00:18 21o 18.895' ( 21.3149) 157o 52.630' (-157.8772) 0.0 0 48 0.8 3.60 2.94
11-19-2017 20:00:35 21o 18.895' ( 21.3149) 157o 52.630' (-157.8772) 0.0 0 48 0.8 3.60 2.97
11-19-2017 19:00:13 21o 18.886' ( 21.3148) 157o 52.616' (-157.8769) 0.0 0 49 3.2 3.60 2.94
11-19-2017 18:00:13 21o 18.895' ( 21.3149) 157o 52.632' (-157.8772) 0.0 0 48 1.8 3.63 2.94
11-19-2017 17:00:11 21o 18.895' ( 21.3149) 157o 52.630' (-157.8772) 0.0 0 45 0.8 3.63 2.97
11-19-2017 16:00:35 21o 18.894' ( 21.3149) 157o 52.630' (-157.8772) 0.0 0 49 0.8 3.60 2.94
11-19-2017 15:00:13 21o 18.893' ( 21.3149) 157o 52.629' (-157.8772) 0.1 0 47 1.6 3.57 2.94
11-19-2017 14:00:13 21o 18.894' ( 21.3149) 157o 52.630' (-157.8772) 0.0 0 49 0.8 3.63 2.97
11-19-2017 13:00:36 21o 18.893' ( 21.3149) 157o 52.629' (-157.8772) 0.0 0 50 0.6 3.60 2.88
11-19-2017 12:00:12 21o 18.895' ( 21.3149) 157o 52.632' (-157.8772) 0.0 0 49 1.0 3.57 2.88
11-19-2017 11:00:16 21o 18.893' ( 21.3149) 157o 52.632' (-157.8772) 0.0 0 50 0.8 3.60 2.88
11-19-2017 10:00:35 21o 18.895' ( 21.3149) 157o 52.630' (-157.8772) 0.0 0 48 0.6 3.57 2.91
11-19-2017 9:00:13 21o 18.894' ( 21.3149) 157o 52.629' (-157.8772) 0.1 0 48 1.2 3.63 2.85
11-19-2017 8:00:14 21o 18.892' ( 21.3149) 157o 52.632' (-157.8772) 0.0 0 51 0.8 3.60 2.88
11-19-2017 7:00:14 21o 18.893' ( 21.3149) 157o 52.630' (-157.8772) 0.0 0 51 0.8 3.57 2.88
11-19-2017 6:00:36 21o 18.895' ( 21.3149) 157o 52.631' (-157.8772) 0.0 0 47 0.6 3.60 2.88
11-19-2017 5:00:11 21o 18.899' ( 21.3150) 157o 52.630' (-157.8772) 0.0 0 48 1.6 3.60 2.85
11-19-2017 4:00:13 21o 18.893' ( 21.3149) 157o 52.629' (-157.8772) 0.0 0 49 1.2 3.57 2.91
11-19-2017 3:00:13 21o 18.895' ( 21.3149) 157o 52.629' (-157.8772) 0.0 0 47 0.8 3.60 2.97
11-19-2017 2:00:36 21o 18.895' ( 21.3149) 157o 52.630' (-157.8772) 0.0 0 47 0.4 3.60 2.94
11-19-2017 1:00:11 21o 18.895' ( 21.3149) 157o 52.630' (-157.8772) 0.0 0 48 2.0 3.60 2.94
11-19-2017 0:00:17 21o 18.895' ( 21.3149) 157o 52.633' (-157.8772) 0.0 0 48 1.2 3.60 2.91
11-18-2017 23:00:13 21o 18.897' ( 21.3149) 157o 52.630' (-157.8772) 0.0 0 46 1.0 3.63 2.94
11-18-2017 22:00:36 21o 18.895' ( 21.3149) 157o 52.630' (-157.8772) 0.0 0 48 0.8 3.60 2.97
11-18-2017 21:00:13 21o 18.896' ( 21.3149) 157o 52.634' (-157.8772) 0.0 0 48 2.8 3.60 2.97
11-18-2017 20:00:12 21o 18.894' ( 21.3149) 157o 52.630' (-157.8772) 0.0 0 49 1.0 3.57 2.97
11-18-2017 19:00:14 21o 18.894' ( 21.3149) 157o 52.630' (-157.8772) 0.0 0 50 0.8 3.60 2.94
11-18-2017 18:00:35 21o 18.895' ( 21.3149) 157o 52.630' (-157.8772) 0.0 0 47 0.8 3.60 2.97
11-18-2017 17:00:11 21o 18.893' ( 21.3149) 157o 52.625' (-157.8771) 0.0 0 46 1.4 3.60 2.94
11-18-2017 16:00:13 21o 18.892' ( 21.3149) 157o 52.632' (-157.8772) 0.0 0 47 0.8 3.60 2.97
11-18-2017 15:00:18 21o 18.893' ( 21.3149) 157o 52.630' (-157.8772) 0.0 0 49 0.8 3.60 2.94
11-18-2017 14:00:36 21o 18.893' ( 21.3149) 157o 52.630' (-157.8772) 0.0 0 49 0.6 3.60 2.94
11-18-2017 13:00:42 21o 18.892' ( 21.3149) 157o 52.631' (-157.8772) 0.0 0 50 0.8 3.60 3.00
11-18-2017 12:00:13 21o 18.893' ( 21.3149) 157o 52.629' (-157.8772) 0.0 0 50 1.0 3.63 2.94
11-18-2017 11:00:13 21o 18.896' ( 21.3149) 157o 52.630' (-157.8772) 0.0 0 50 0.8 3.60 2.82
11-18-2017 10:00:35 21o 18.894' ( 21.3149) 157o 52.629' (-157.8772) 0.0 0 50 0.8 3.60 2.94
11-18-2017 9:00:13 21o 18.894' ( 21.3149) 157o 52.630' (-157.8772) 0.0 0 48 2.2 3.63 2.91
11-18-2017 8:00:12 21o 18.895' ( 21.3149) 157o 52.630' (-157.8772) 0.0 0 49 0.8 3.63 2.88
11-18-2017 7:00:12 21o 18.894' ( 21.3149) 157o 52.631' (-157.8772) 0.0 0 51 0.8 3.63 2.85
11-18-2017 6:00:36 21o 18.892' ( 21.3149) 157o 52.632' (-157.8772) 0.0 0 48 0.6 3.60 2.85
11-18-2017 5:00:10 21o 18.896' ( 21.3149) 157o 52.631' (-157.8772) 0.0 0 50 1.6 3.63 2.88
11-18-2017 4:00:12 21o 18.895' ( 21.3149) 157o 52.630' (-157.8772) 0.0 0 49 1.0 3.63 2.91
11-18-2017 3:00:16 21o 18.893' ( 21.3149) 157o 52.630' (-157.8772) 0.0 0 47 0.8 3.60 2.91
11-18-2017 2:00:36 21o 18.896' ( 21.3149) 157o 52.629' (-157.8772) 0.0 0 48 0.6 3.57 2.91
11-18-2017 1:00:13 21o 18.894' ( 21.3149) 157o 52.630' (-157.8772) 0.0 0 48 1.6 3.63 2.94
11-18-2017 0:00:14 21o 18.896' ( 21.3149) 157o 52.629' (-157.8772) 0.0 0 49 1.0 3.60 2.94
11-17-2017 23:00:13 21o 18.895' ( 21.3149) 157o 52.630' (-157.8772) 0.0 0 48 0.8 3.60 2.94
11-17-2017 22:00:36 21o 18.897' ( 21.3149) 157o 52.630' (-157.8772) 0.0 0 46 0.6 3.60 2.94
11-17-2017 21:00:12 21o 18.896' ( 21.3149) 157o 52.632' (-157.8772) 0.1 0 48 2.4 3.60 2.97
11-17-2017 20:00:11 21o 18.895' ( 21.3149) 157o 52.632' (-157.8772) 0.0 0 48 1.0 3.60 2.94
11-17-2017 19:00:11 21o 18.895' ( 21.3149) 157o 52.630' (-157.8772) 0.0 0 49 0.8 3.57 2.91
11-17-2017 18:00:36 21o 18.894' ( 21.3149) 157o 52.632' (-157.8772) 0.0 0 47 0.6 3.60 2.88
11-17-2017 17:00:16 21o 18.892' ( 21.3149) 157o 52.629' (-157.8772) 0.0 0 48 1.2 3.60 2.88
11-17-2017 16:00:13 21o 18.893' ( 21.3149) 157o 52.630' (-157.8772) 0.0 0 47 0.8 3.63 2.88
11-17-2017 15:00:13 21o 18.894' ( 21.3149) 157o 52.630' (-157.8772) 0.0 0 47 0.8 3.63 2.88
11-17-2017 14:00:36 21o 18.893' ( 21.3149) 157o 52.630' (-157.8772) 0.0 0 49 0.6 3.60 2.91
11-17-2017 13:00:13 21o 18.892' ( 21.3149) 157o 52.634' (-157.8772) 0.0 0 50 1.8 3.63 2.88
11-17-2017 12:00:12 21o 18.892' ( 21.3149) 157o 52.629' (-157.8772) 0.0 0 48 1.0 3.63 2.91
11-17-2017 11:00:12 21o 18.895' ( 21.3149) 157o 52.630' (-157.8772) 0.0 0 50 0.8 3.63 2.91
11-17-2017 10:00:36 21o 18.895' ( 21.3149) 157o 52.630' (-157.8772) 0.0 0 50 0.6 3.60 2.91
11-17-2017 9:00:13 21o 18.895' ( 21.3149) 157o 52.631' (-157.8772) 0.0 0 49 0.8 3.57 2.88
11-17-2017 8:00:11 21o 18.893' ( 21.3149) 157o 52.630' (-157.8772) 0.0 0 51 0.8 3.63 2.88
11-17-2017 7:00:35 21o 18.893' ( 21.3149) 157o 52.630' (-157.8772) 0.0 0 51 0.6 3.60 2.88
11-17-2017 6:00:16 21o 18.896' ( 21.3149) 157o 52.633' (-157.8772) 0.1 0 48 2.2 3.60 2.85
11-17-2017 5:00:17 21o 18.894' ( 21.3149) 157o 52.630' (-157.8772) 0.0 0 48 0.8 3.60 2.91
11-17-2017 4:00:36 21o 18.893' ( 21.3149) 157o 52.629' (-157.8772) 0.0 0 49 0.8 3.60 2.91
11-17-2017 3:00:13 21o 18.894' ( 21.3149) 157o 52.630' (-157.8772) 0.1 0 46 3.4 3.63 2.94
11-17-2017 2:00:12 21o 18.895' ( 21.3149) 157o 52.629' (-157.8772) 0.0 0 48 0.8 3.60 2.91
11-17-2017 1:00:12 21o 18.894' ( 21.3149) 157o 52.629' (-157.8772) 0.0 0 49 1.0 3.60 2.94
11-17-2017 0:00:36 21o 18.896' ( 21.3149) 157o 52.630' (-157.8772) 0.0 0 49 0.4 3.60 2.91
11-16-2017 23:00:13 21o 18.896' ( 21.3149) 157o 52.630' (-157.8772) 0.0 0 47 1.4 3.60 2.91
11-16-2017 22:00:11 21o 18.895' ( 21.3149) 157o 52.629' (-157.8772) 0.0 0 47 0.8 3.60 2.91
11-16-2017 21:00:11 21o 18.896' ( 21.3149) 157o 52.630' (-157.8772) 0.0 0 48 0.6 3.57 2.94
11-16-2017 20:00:36 21o 18.895' ( 21.3149) 157o 52.630' (-157.8772) 0.0 0 49 0.8 3.60 2.97
11-16-2017 19:00:13 21o 18.888' ( 21.3148) 157o 52.622' (-157.8770) 0.0 0 50 3.6 3.60 2.97
11-16-2017 18:00:13 21o 18.893' ( 21.3149) 157o 52.627' (-157.8771) 0.0 0 47 2.2 3.60 2.88
11-16-2017 17:00:14 21o 18.895' ( 21.3149) 157o 52.630' (-157.8772) 0.0 0 49 0.8 3.63 2.88
11-16-2017 16:00:36 21o 18.894' ( 21.3149) 157o 52.630' (-157.8772) 0.0 0 48 0.4 3.60 2.88
11-16-2017 15:00:12 21o 18.895' ( 21.3149) 157o 52.631' (-157.8772) 0.0 0 48 1.0 3.60 2.88
11-16-2017 14:00:12 21o 18.894' ( 21.3149) 157o 52.631' (-157.8772) 0.0 0 49 0.8 3.63 2.88
11-16-2017 13:00:36 21o 18.893' ( 21.3149) 157o 52.630' (-157.8772) 0.0 0 51 0.6 3.60 2.88
11-16-2017 12:00:11 21o 18.893' ( 21.3149) 157o 52.632' (-157.8772) 0.0 0 48 1.0 3.57 2.85
11-16-2017 11:00:17 21o 18.895' ( 21.3149) 157o 52.630' (-157.8772) 0.0 0 49 0.8 3.63 2.82
11-16-2017 10:00:36 21o 18.893' ( 21.3149) 157o 52.630' (-157.8772) 0.0 0 49 0.6 3.60 2.82
11-16-2017 9:00:13 21o 18.895' ( 21.3149) 157o 52.631' (-157.8772) 0.0 0 47 0.8 3.63 2.79
11-16-2017 8:00:13 21o 18.896' ( 21.3149) 157o 52.630' (-157.8772) 0.0 0 46 0.8 3.60 2.70
11-16-2017 7:00:35 21o 18.895' ( 21.3149) 157o 52.632' (-157.8772) 0.0 0 47 0.8 3.60 2.76
11-16-2017 6:00:13 21o 18.894' ( 21.3149) 157o 52.630' (-157.8772) 0.1 0 45 1.2 3.63 2.88
11-16-2017 5:00:13 21o 18.895' ( 21.3149) 157o 52.629' (-157.8772) 0.0 0 49 0.8 3.60 2.88
11-16-2017 4:00:35 21o 18.893' ( 21.3149) 157o 52.630' (-157.8772) 0.0 0 49 0.8 3.60 2.88
11-16-2017 3:00:12 21o 18.893' ( 21.3149) 157o 52.625' (-157.8771) 0.1 0 46 3.4 3.60 2.91
11-16-2017 1:10:11 21o 18.895' ( 21.3149) 157o 52.629' (-157.8772) 0.0 0 49 1.0 3.63 2.94
11-16-2017 1:00:11 21o 18.895' ( 21.3149) 157o 52.629' (-157.8772) 0.0 0 48 1.0 3.60 2.88
11-16-2017 0:50:11 21o 18.895' ( 21.3149) 157o 52.632' (-157.8772) 0.0 0 48 0.6 3.60 2.91
11-16-2017 0:40:11 21o 18.896' ( 21.3149) 157o 52.632' (-157.8772) 0.0 0 48 0.6 3.60 2.91
11-16-2017 0:30:11 21o 18.896' ( 21.3149) 157o 52.632' (-157.8772) 0.0 0 48 0.6 3.60 2.88
11-16-2017 0:20:11 21o 18.899' ( 21.3150) 157o 52.630' (-157.8772) 0.0 0 49 0.6 3.60 2.85
11-16-2017 0:03:45 21o 18.899' ( 21.3150) 157o 52.621' (-157.8770) 0.1 0 49 1.4 3.57 2.85

Xeos # 2 : IMEI 50030 (s/n 78)
GMT GMT Latitude Longitude Speed Head SNR HDOP Batt(u) Batt(l)
date time deg N deg W knots deg volts volts
11-20-2017 1:00:18 21o 18.895' ( 21.3149) 157o 52.630' (-157.8772) 0.0 0 50 1.2 3.57 3.09
11-20-2017 0:00:35 21o 18.896' ( 21.3149) 157o 52.629' (-157.8772) 0.0 0 48 1.0 3.54 3.12
11-19-2017 23:00:13 21o 18.896' ( 21.3149) 157o 52.627' (-157.8771) 0.1 39 47 2.6 3.54 3.12
11-19-2017 22:00:14 21o 18.895' ( 21.3149) 157o 52.629' (-157.8772) 0.0 0 48 0.8 3.54 3.12
11-19-2017 21:00:14 21o 18.895' ( 21.3149) 157o 52.629' (-157.8772) 0.0 0 48 0.8 3.54 3.09
11-19-2017 20:00:35 21o 18.895' ( 21.3149) 157o 52.629' (-157.8772) 0.0 0 49 0.8 3.54 3.09
11-19-2017 19:00:13 21o 18.901' ( 21.3150) 157o 52.643' (-157.8774) 0.1 0 47 2.8 3.54 3.09
11-19-2017 18:00:12 21o 18.894' ( 21.3149) 157o 52.629' (-157.8772) 0.1 0 47 1.8 3.57 3.06
11-19-2017 17:00:18 21o 18.896' ( 21.3149) 157o 52.627' (-157.8771) 0.0 0 44 1.2 3.51 3.03
11-19-2017 16:00:36 21o 18.894' ( 21.3149) 157o 52.630' (-157.8772) 0.0 0 48 0.6 3.48 3.06
11-19-2017 15:00:18 21o 18.890' ( 21.3148) 157o 52.633' (-157.8772) 0.0 0 48 1.0 3.48 3.03
11-19-2017 14:00:17 21o 18.892' ( 21.3149) 157o 52.630' (-157.8772) 0.0 0 47 0.8 3.48 3.06
11-19-2017 13:00:36 21o 18.892' ( 21.3149) 157o 52.629' (-157.8772) 0.0 0 50 0.6 3.48 2.64
11-19-2017 12:00:18 21o 18.895' ( 21.3149) 157o 52.632' (-157.8772) 0.0 0 49 1.4 3.48 3.03
11-19-2017 11:00:17 21o 18.891' ( 21.3148) 157o 52.632' (-157.8772) 0.0 0 50 0.8 3.48 3.03
11-19-2017 10:00:36 21o 18.894' ( 21.3149) 157o 52.630' (-157.8772) 0.0 0 50 0.8 3.48 3.06
11-19-2017 9:00:18 21o 18.894' ( 21.3149) 157o 52.630' (-157.8772) 0.0 0 48 0.8 3.48 3.00
11-19-2017 8:00:17 21o 18.893' ( 21.3149) 157o 52.630' (-157.8772) 0.0 0 50 0.6 2.97 3.00
11-19-2017 7:00:35 21o 18.894' ( 21.3149) 157o 52.629' (-157.8772) 0.0 0 49 0.8 2.94 3.06
11-19-2017 6:00:18 21o 18.894' ( 21.3149) 157o 52.632' (-157.8772) 0.0 0 48 1.0 3.48 3.03
11-19-2017 5:00:19 21o 18.896' ( 21.3149) 157o 52.629' (-157.8772) 0.0 0 47 0.8 2.97 2.76
11-19-2017 4:00:36 21o 18.895' ( 21.3149) 157o 52.630' (-157.8772) 0.0 0 49 0.8 2.85 3.09
11-19-2017 3:00:12 21o 18.893' ( 21.3149) 157o 52.625' (-157.8771) 0.0 0 47 1.0 3.57 3.12
11-19-2017 2:00:14 21o 18.895' ( 21.3149) 157o 52.627' (-157.8771) 0.0 0 48 1.0 3.54 3.12
11-19-2017 1:00:16 21o 18.894' ( 21.3149) 157o 52.630' (-157.8772) 0.0 0 50 0.8 3.54 3.12
11-19-2017 0:00:36 21o 18.896' ( 21.3149) 157o 52.632' (-157.8772) 0.0 0 48 0.8 3.54 3.12
11-18-2017 23:00:13 21o 18.895' ( 21.3149) 157o 52.628' (-157.8771) 0.1 75 46 1.4 3.57 3.09
11-18-2017 22:00:13 21o 18.893' ( 21.3149) 157o 52.630' (-157.8772) 0.0 0 49 0.8 3.57 3.12
11-18-2017 21:00:13 21o 18.893' ( 21.3149) 157o 52.632' (-157.8772) 0.0 0 48 0.6 3.57 3.09
11-18-2017 20:00:36 21o 18.895' ( 21.3149) 157o 52.630' (-157.8772) 0.0 0 49 0.8 3.54 3.12
11-18-2017 19:00:11 21o 18.891' ( 21.3148) 157o 52.632' (-157.8772) 0.1 0 48 3.6 3.54 3.06
11-18-2017 18:00:13 21o 18.893' ( 21.3149) 157o 52.629' (-157.8772) 0.0 0 48 1.4 3.54 3.06
11-18-2017 17:00:18 21o 18.896' ( 21.3149) 157o 52.630' (-157.8772) 0.0 0 47 1.4 3.51 2.64
11-18-2017 16:00:36 21o 18.893' ( 21.3149) 157o 52.630' (-157.8772) 0.0 0 48 0.6 2.94 3.03
11-18-2017 15:00:16 21o 18.893' ( 21.3149) 157o 52.630' (-157.8772) 0.0 0 49 1.2 3.48 3.06
11-18-2017 14:00:18 21o 18.895' ( 21.3149) 157o 52.630' (-157.8772) 0.0 0 47 0.8 3.48 3.03
11-18-2017 13:00:36 21o 18.893' ( 21.3149) 157o 52.629' (-157.8772) 0.0 0 50 0.6 3.48 3.03
11-18-2017 12:00:16 21o 18.895' ( 21.3149) 157o 52.631' (-157.8772) 0.1 0 47 1.6 3.48 3.03
11-18-2017 11:00:18 21o 18.893' ( 21.3149) 157o 52.630' (-157.8772) 0.0 0 50 0.8 3.48 3.03
11-18-2017 10:00:36 21o 18.893' ( 21.3149) 157o 52.630' (-157.8772) 0.0 0 49 0.8 3.48 2.67
11-18-2017 9:00:17 21o 18.895' ( 21.3149) 157o 52.630' (-157.8772) 0.0 0 48 2.2 3.21 3.03
11-18-2017 8:00:17 21o 18.893' ( 21.3149) 157o 52.631' (-157.8772) 0.0 0 51 0.8 2.97 3.03
11-18-2017 7:00:18 21o 18.895' ( 21.3149) 157o 52.630' (-157.8772) 0.0 0 49 0.8 3.48 2.67
11-18-2017 6:00:35 21o 18.895' ( 21.3149) 157o 52.631' (-157.8772) 0.0 0 47 0.6 3.48 3.03
11-18-2017 5:00:18 21o 18.895' ( 21.3149) 157o 52.634' (-157.8772) 0.0 0 48 1.8 3.48 3.06
11-18-2017 4:00:18 21o 18.895' ( 21.3149) 157o 52.632' (-157.8772) 0.0 0 49 1.2 3.48 3.06
11-18-2017 3:00:13 21o 18.895' ( 21.3149) 157o 52.630' (-157.8772) 0.0 0 48 0.8 3.57 3.06
11-18-2017 2:00:36 21o 18.895' ( 21.3149) 157o 52.630' (-157.8772) 0.0 0 48 0.6 3.51 3.12
11-18-2017 1:00:17 21o 18.895' ( 21.3149) 157o 52.632' (-157.8772) 0.0 0 50 2.0 3.54 3.12
11-18-2017 0:00:14 21o 18.895' ( 21.3149) 157o 52.630' (-157.8772) 0.0 0 47 1.2 3.57 3.12
11-17-2017 23:00:14 21o 18.898' ( 21.3150) 157o 52.632' (-157.8772) 0.0 0 47 1.6 3.57 3.12
11-17-2017 22:00:35 21o 18.896' ( 21.3149) 157o 52.629' (-157.8772) 0.0 0 48 0.8 3.54 3.12
11-17-2017 21:00:10 21o 18.901' ( 21.3150) 157o 52.639' (-157.8773) 0.0 0 49 2.4 3.57 3.12
11-17-2017 20:00:13 21o 18.896' ( 21.3149) 157o 52.632' (-157.8772) 0.0 0 51 1.2 3.54 3.12
11-17-2017 19:00:13 21o 18.892' ( 21.3149) 157o 52.630' (-157.8772) 0.0 0 47 0.8 3.54 3.09
11-17-2017 18:00:36 21o 18.893' ( 21.3149) 157o 52.630' (-157.8772) 0.0 0 47 0.6 3.54 3.03
11-17-2017 17:00:17 21o 18.895' ( 21.3149) 157o 52.632' (-157.8772) 0.0 0 48 1.2 3.48 3.03
11-17-2017 16:00:17 21o 18.893' ( 21.3149) 157o 52.632' (-157.8772) 0.0 0 47 0.8 3.48 2.70
11-17-2017 15:00:18 21o 18.892' ( 21.3149) 157o 52.632' (-157.8772) 0.0 0 49 0.8 3.48 2.70
11-17-2017 14:00:35 21o 18.892' ( 21.3149) 157o 52.630' (-157.8772) 0.0 0 47 0.8 3.48 3.06
11-17-2017 13:00:17 21o 18.893' ( 21.3149) 157o 52.634' (-157.8772) 0.0 0 51 1.8 3.48 2.70
11-17-2017 12:00:18 21o 18.893' ( 21.3149) 157o 52.630' (-157.8772) 0.0 0 49 1.0 3.48 2.67
11-17-2017 11:00:18 21o 18.893' ( 21.3149) 157o 52.631' (-157.8772) 0.0 0 49 0.6 3.48 3.06
11-17-2017 10:00:35 21o 18.894' ( 21.3149) 157o 52.630' (-157.8772) 0.0 0 49 0.6 3.48 2.70
11-17-2017 9:00:18 21o 18.890' ( 21.3148) 157o 52.629' (-157.8772) 0.1 0 49 2.0 3.48 3.03
11-17-2017 8:00:18 21o 18.895' ( 21.3149) 157o 52.629' (-157.8772) 0.0 0 51 0.8 3.48 3.03
11-17-2017 7:00:17 21o 18.893' ( 21.3149) 157o 52.629' (-157.8772) 0.0 0 50 0.8 3.48 3.03
11-17-2017 6:00:35 21o 18.891' ( 21.3148) 157o 52.629' (-157.8772) 0.0 0 47 1.4 3.48 3.03
11-17-2017 5:00:18 21o 18.895' ( 21.3149) 157o 52.629' (-157.8772) 0.0 0 47 1.4 3.48 3.03
11-17-2017 4:00:12 21o 18.893' ( 21.3149) 157o 52.629' (-157.8772) 0.0 0 49 1.4 3.48 3.06
11-17-2017 3:00:16 21o 18.893' ( 21.3149) 157o 52.633' (-157.8772) 0.0 0 46 0.8 3.54 3.09
11-17-2017 2:00:36 21o 18.895' ( 21.3149) 157o 52.629' (-157.8772) 0.0 0 48 0.6 3.54 3.09
11-17-2017 1:00:13 21o 18.893' ( 21.3149) 157o 52.629' (-157.8772) 0.1 0 49 2.0 3.57 3.12
11-17-2017 0:00:13 21o 18.895' ( 21.3149) 157o 52.632' (-157.8772) 0.0 0 48 1.2 3.57 3.12
11-16-2017 23:00:12 21o 18.895' ( 21.3149) 157o 52.629' (-157.8772) 0.0 0 46 1.0 3.57 3.12
11-16-2017 22:00:35 21o 18.893' ( 21.3149) 157o 52.628' (-157.8771) 0.0 0 48 0.8 3.54 3.12
11-16-2017 21:00:12 21o 18.895' ( 21.3149) 157o 52.632' (-157.8772) 0.1 0 49 1.6 3.54 3.12
11-16-2017 20:00:13 21o 18.895' ( 21.3149) 157o 52.630' (-157.8772) 0.0 0 49 1.4 3.57 3.12
11-16-2017 19:00:12 21o 18.895' ( 21.3149) 157o 52.629' (-157.8772) 0.0 0 48 1.0 3.57 3.09
11-16-2017 18:00:36 21o 18.893' ( 21.3149) 157o 52.632' (-157.8772) 0.0 0 48 0.6 3.54 3.06
11-16-2017 17:00:18 21o 18.890' ( 21.3148) 157o 52.629' (-157.8772) 0.0 0 47 1.2 3.51 3.06
11-16-2017 16:00:17 21o 18.893' ( 21.3149) 157o 52.630' (-157.8772) 0.0 0 47 0.8 3.48 2.70
11-16-2017 15:00:18 21o 18.892' ( 21.3149) 157o 52.631' (-157.8772) 0.0 0 48 0.8 3.48 3.06
11-16-2017 14:00:36 21o 18.893' ( 21.3149) 157o 52.630' (-157.8772) 0.0 0 49 0.8 3.48 3.03
11-16-2017 13:00:16 21o 18.893' ( 21.3149) 157o 52.628' (-157.8771) 0.1 0 50 2.0 2.94 3.03
11-16-2017 12:00:18 21o 18.893' ( 21.3149) 157o 52.632' (-157.8772) 0.0 0 48 0.8 2.97 2.70
11-16-2017 11:00:17 21o 18.893' ( 21.3149) 157o 52.631' (-157.8772) 0.0 0 49 0.6 3.48 2.79
11-16-2017 10:00:35 21o 18.895' ( 21.3149) 157o 52.630' (-157.8772) 0.0 0 51 0.6 3.48 3.03
11-16-2017 9:00:18 21o 18.895' ( 21.3149) 157o 52.631' (-157.8772) 0.0 0 48 1.2 3.48 2.97
11-16-2017 8:00:18 21o 18.893' ( 21.3149) 157o 52.630' (-157.8772) 0.0 0 50 0.8 3.48 2.64
11-16-2017 7:00:36 21o 18.893' ( 21.3149) 157o 52.630' (-157.8772) 0.0 0 51 0.8 3.48 2.64
11-16-2017 6:00:17 21o 18.892' ( 21.3149) 157o 52.630' (-157.8772) 0.1 150 46 1.2 3.48 3.03
11-16-2017 5:00:19 21o 18.895' ( 21.3149) 157o 52.631' (-157.8772) 0.0 0 45 1.2 3.48 3.03
11-16-2017 4:00:35 21o 18.893' ( 21.3149) 157o 52.632' (-157.8772) 0.0 0 47 0.8 3.48 3.09
11-16-2017 3:00:12 21o 18.896' ( 21.3149) 157o 52.622' (-157.8770) 0.0 0 47 1.2 3.57 3.12
11-16-2017 2:00:17 21o 18.894' ( 21.3149) 157o 52.630' (-157.8772) 0.0 0 48 1.0 3.57 3.09
11-16-2017 1:00:17 21o 18.895' ( 21.3149) 157o 52.630' (-157.8772) 0.0 0 49 1.0 3.54 3.09
11-16-2017 0:00:35 21o 18.896' ( 21.3149) 157o 52.629' (-157.8772) 0.0 0 48 0.8 3.54 3.12
11-15-2017 23:00:13 21o 18.896' ( 21.3149) 157o 52.632' (-157.8772) 0.2 57 48 4.6 3.54 3.09
11-15-2017 22:00:12 21o 18.895' ( 21.3149) 157o 52.629' (-157.8772) 0.0 0 48 1.0 3.54 3.09
11-15-2017 21:00:12 21o 18.893' ( 21.3149) 157o 52.629' (-157.8772) 0.0 0 48 0.8 3.57 3.06
11-15-2017 20:00:35 21o 18.893' ( 21.3149) 157o 52.631' (-157.8772) 0.0 0 50 0.8 3.51 3.12
11-15-2017 19:00:12 21o 18.895' ( 21.3149) 157o 52.632' (-157.8772) 0.1 0 47 2.0 3.57 3.06
11-15-2017 18:00:36 21o 18.895' ( 21.3149) 157o 52.632' (-157.8772) 0.0 0 47 0.8 3.54 3.06
11-15-2017 17:00:17 21o 18.894' ( 21.3149) 157o 52.628' (-157.8771) 0.0 0 48 2.2 3.51 3.06
11-15-2017 16:00:18 21o 18.892' ( 21.3149) 157o 52.632' (-157.8772) 0.0 0 47 1.0 3.48 3.03
11-15-2017 15:00:35 21o 18.893' ( 21.3149) 157o 52.633' (-157.8772) 0.0 0 47 0.8 3.48 3.06
11-15-2017 14:00:18 21o 18.895' ( 21.3149) 157o 52.625' (-157.8771) 0.0 0 48 1.2 2.97 2.70
11-15-2017 13:00:18 21o 18.892' ( 21.3149) 157o 52.629' (-157.8772) 0.0 0 50 1.0 3.48 3.03
11-15-2017 12:00:36 21o 18.892' ( 21.3149) 157o 52.630' (-157.8772) 0.1 0 49 1.6 3.48 2.67
11-15-2017 11:00:18 21o 18.895' ( 21.3149) 157o 52.633' (-157.8772) 0.0 0 49 1.2 3.48 2.70
11-15-2017 10:00:18 21o 18.893' ( 21.3149) 157o 52.630' (-157.8772) 0.0 0 49 0.6 3.48 3.03
11-15-2017 9:00:36 21o 18.895' ( 21.3149) 157o 52.629' (-157.8772) 0.0 0 50 0.8 3.48 3.06
11-15-2017 8:00:17 21o 18.892' ( 21.3149) 157o 52.627' (-157.8771) 0.0 0 51 1.0 3.48 3.06
11-15-2017 7:00:18 21o 18.892' ( 21.3149) 157o 52.634' (-157.8772) 0.0 0 50 0.8 2.94 3.03
11-15-2017 6:00:36 21o 18.895' ( 21.3149) 157o 52.632' (-157.8772) 0.0 0 46 0.8 2.94 3.03
11-15-2017 5:00:19 21o 18.891' ( 21.3148) 157o 52.629' (-157.8772) 0.0 0 46 2.0 3.48 3.03
11-15-2017 4:00:13 21o 18.896' ( 21.3149) 157o 52.632' (-157.8772) 0.0 0 48 1.0 3.48 3.12
11-15-2017 3:00:11 21o 18.892' ( 21.3149) 157o 52.630' (-157.8772) 0.0 0 48 0.8 3.57 3.09
11-15-2017 2:00:35 21o 18.896' ( 21.3149) 157o 52.629' (-157.8772) 0.0 0 49 0.6 3.54 3.06
11-15-2017 1:00:18 21o 18.893' ( 21.3149) 157o 52.625' (-157.8771) 0.0 0 49 2.0 3.57 3.12
11-15-2017 0:00:13 21o 18.895' ( 21.3149) 157o 52.625' (-157.8771) 0.0 0 48 1.0 3.57 3.12
11-14-2017 23:00:14 21o 18.895' ( 21.3149) 157o 52.631' (-157.8772) 0.0 0 49 0.8 3.57 3.12
11-14-2017 22:00:35 21o 18.895' ( 21.3149) 157o 52.629' (-157.8772) 0.0 0 48 0.8 3.54 3.12
11-14-2017 21:00:13 21o 18.896' ( 21.3149) 157o 52.633' (-157.8772) 0.0 0 48 1.8 3.57 3.12
11-14-2017 20:00:13 21o 18.895' ( 21.3149) 157o 52.630' (-157.8772) 0.0 0 51 2.0 3.54 3.12
11-14-2017 19:00:13 21o 18.895' ( 21.3149) 157o 52.632' (-157.8772) 0.0 0 48 0.8 3.54 3.09
11-14-2017 18:00:36 21o 18.893' ( 21.3149) 157o 52.630' (-157.8772) 0.0 0 46 0.6 3.54 3.03
11-14-2017 17:00:17 21o 18.895' ( 21.3149) 157o 52.634' (-157.8772) 0.1 0 49 1.4 3.51 3.06
11-14-2017 16:00:18 21o 18.893' ( 21.3149) 157o 52.630' (-157.8772) 0.0 0 47 1.0 3.48 2.67
11-14-2017 15:00:18 21o 18.894' ( 21.3149) 157o 52.630' (-157.8772) 0.0 0 48 0.8 3.48 3.06
11-14-2017 14:00:36 21o 18.895' ( 21.3149) 157o 52.630' (-157.8772) 0.0 0 49 0.8 2.94 3.06
11-14-2017 13:00:18 21o 18.893' ( 21.3149) 157o 52.624' (-157.8771) 0.0 0 49 1.4 3.48 2.73
11-14-2017 12:00:16 21o 18.895' ( 21.3149) 157o 52.632' (-157.8772) 0.0 0 48 0.8 3.48 3.03
11-14-2017 11:00:19 21o 18.895' ( 21.3149) 157o 52.629' (-157.8772) 0.0 0 48 0.8 3.48 2.67
11-14-2017 10:00:36 21o 18.892' ( 21.3149) 157o 52.632' (-157.8772) 0.0 0 51 0.6 3.48 2.70
11-14-2017 9:00:17 21o 18.897' ( 21.3149) 157o 52.629' (-157.8772) 0.0 0 48 1.0 3.48 2.70
11-14-2017 8:00:19 21o 18.892' ( 21.3149) 157o 52.630' (-157.8772) 0.0 0 51 0.8 3.48 3.06
11-14-2017 7:00:36 21o 18.893' ( 21.3149) 157o 52.631' (-157.8772) 0.0 0 50 0.6 3.48 3.06
11-14-2017 6:00:17 21o 18.892' ( 21.3149) 157o 52.631' (-157.8772) 0.1 0 47 1.6 2.94 2.70
11-14-2017 5:00:19 21o 18.894' ( 21.3149) 157o 52.629' (-157.8772) 0.0 0 47 0.8 3.48 2.64
11-14-2017 4:00:35 21o 18.892' ( 21.3149) 157o 52.630' (-157.8772) 0.0 0 47 0.8 3.48 3.12
11-14-2017 3:00:11 21o 18.893' ( 21.3149) 157o 52.625' (-157.8771) 0.1 0 47 3.2 3.54 3.09
11-14-2017 2:00:11 21o 18.892' ( 21.3149) 157o 52.629' (-157.8772) 0.0 0 48 1.0 3.57 3.12
11-14-2017 1:00:16 21o 18.896' ( 21.3149) 157o 52.630' (-157.8772) 0.0 0 48 1.0 3.54 3.09
11-14-2017 0:00:36 21o 18.895' ( 21.3149) 157o 52.632' (-157.8772) 0.0 0 48 0.8 3.54 3.12
11-13-2017 23:00:14 21o 18.898' ( 21.3150) 157o 52.629' (-157.8772) 0.0 0 49 1.0 3.54 3.12
11-13-2017 22:00:13 21o 18.895' ( 21.3149) 157o 52.628' (-157.8771) 0.0 0 48 0.8 3.57 3.12
11-13-2017 21:00:35 21o 18.895' ( 21.3149) 157o 52.630' (-157.8772) 0.0 0 47 0.6 3.54 3.12
11-13-2017 20:00:12 21o 18.890' ( 21.3148) 157o 52.627' (-157.8771) 0.0 0 49 1.2 3.54 3.12
11-13-2017 19:00:13 21o 18.895' ( 21.3149) 157o 52.630' (-157.8772) 0.0 0 48 1.6 3.57 3.12
11-13-2017 18:00:36 21o 18.892' ( 21.3149) 157o 52.630' (-157.8772) 0.0 0 47 0.6 3.54 3.06
11-13-2017 17:00:17 21o 18.898' ( 21.3150) 157o 52.641' (-157.8774) 0.0 0 49 1.2 3.54 3.06
11-13-2017 16:00:17 21o 18.893' ( 21.3149) 157o 52.632' (-157.8772) 0.0 0 48 1.0 3.48 3.03
11-13-2017 15:00:17 21o 18.893' ( 21.3149) 157o 52.630' (-157.8772) 0.0 0 49 0.8 3.48 3.03
11-13-2017 14:00:37 21o 18.895' ( 21.3149) 157o 52.630' (-157.8772) 0.0 0 50 0.6 2.97 3.03
11-13-2017 13:00:16 21o 18.893' ( 21.3149) 157o 52.620' (-157.8770) 0.0 0 48 1.4 3.48 3.03
11-13-2017 12:00:17 21o 18.893' ( 21.3149) 157o 52.630' (-157.8772) 0.0 0 49 0.8 2.97 2.67
11-13-2017 11:00:18 21o 18.893' ( 21.3149) 157o 52.632' (-157.8772) 0.0 0 48 0.6 3.48 3.03
11-13-2017 10:00:35 21o 18.895' ( 21.3149) 157o 52.627' (-157.8771) 0.0 0 49 0.6 3.48 3.03
11-13-2017 9:00:17 21o 18.890' ( 21.3148) 157o 52.630' (-157.8772) 0.1 0 49 1.4 3.48 3.03
11-13-2017 8:00:18 21o 18.892' ( 21.3149) 157o 52.630' (-157.8772) 0.0 0 51 0.8 3.48 2.67
11-13-2017 7:00:16 21o 18.895' ( 21.3149) 157o 52.632' (-157.8772) 0.0 0 50 0.8 3.48 3.06
11-13-2017 6:00:36 21o 18.893' ( 21.3149) 157o 52.634' (-157.8772) 0.0 0 48 0.8 3.48 3.03
11-13-2017 5:00:19 21o 18.885' ( 21.3148) 157o 52.630' (-157.8772) 0.0 0 48 2.2 3.48 3.03
11-13-2017 4:00:13 21o 18.895' ( 21.3149) 157o 52.633' (-157.8772) 0.0 0 48 1.0 3.51 3.09
11-13-2017 3:00:16 21o 18.894' ( 21.3149) 157o 52.632' (-157.8772) 0.0 0 49 0.8 3.57 3.09
11-13-2017 2:00:35 21o 18.893' ( 21.3149) 157o 52.631' (-157.8772) 0.0 0 49 0.6 3.54 3.09

Xeos # 3 : IMEI 50010 (s/n 79)
GMT GMT Latitude Longitude Speed Head SNR HDOP Batt(u) Batt(l)
date time deg N deg W knots deg volts volts
11-20-2017 1:00:14 21o 18.895' ( 21.3149) 157o 52.629' (-157.8772) 0.0 0 48 1.2 3.57 3.06
11-20-2017 0:00:36 21o 18.896' ( 21.3149) 157o 52.627' (-157.8771) 0.0 0 48 0.6 3.54 3.06
11-19-2017 23:00:12 21o 18.895' ( 21.3149) 157o 52.625' (-157.8771) 0.0 0 45 1.0 3.54 3.06
11-19-2017 22:00:13 21o 18.896' ( 21.3149) 157o 52.629' (-157.8772) 0.0 0 46 0.8 3.54 3.06
11-19-2017 21:00:36 21o 18.895' ( 21.3149) 157o 52.630' (-157.8772) 0.0 0 48 0.6 3.54 3.03
11-19-2017 20:00:13 21o 18.896' ( 21.3149) 157o 52.630' (-157.8772) 0.0 0 49 1.4 3.54 3.06
11-19-2017 19:00:13 21o 18.895' ( 21.3149) 157o 52.629' (-157.8772) 0.0 0 48 0.8 3.57 3.03
11-19-2017 18:00:36 21o 18.895' ( 21.3149) 157o 52.630' (-157.8772) 0.0 0 47 0.6 3.54 2.97
11-19-2017 17:00:17 21o 18.892' ( 21.3149) 157o 52.630' (-157.8772) 0.0 0 46 1.4 3.54 2.67
11-19-2017 16:00:18 21o 18.892' ( 21.3149) 157o 52.630' (-157.8772) 0.0 0 46 1.0 3.51 2.97
11-19-2017 15:00:18 21o 18.894' ( 21.3149) 157o 52.632' (-157.8772) 0.0 0 47 1.0 3.51 2.94
11-19-2017 14:00:35 21o 18.895' ( 21.3149) 157o 52.629' (-157.8772) 0.0 0 47 0.8 3.51 2.67
11-19-2017 13:00:18 21o 18.893' ( 21.3149) 157o 52.629' (-157.8772) 0.1 0 51 1.8 3.51 2.97
11-19-2017 12:00:16 21o 18.893' ( 21.3149) 157o 52.630' (-157.8772) 0.1 0 50 0.8 3.51 2.64
11-19-2017 11:00:17 21o 18.893' ( 21.3149) 157o 52.630' (-157.8772) 0.0 0 50 0.8 3.51 2.97
11-19-2017 10:00:35 21o 18.893' ( 21.3149) 157o 52.630' (-157.8772) 0.0 0 47 0.6 3.51 2.97
11-19-2017 9:00:19 21o 18.894' ( 21.3149) 157o 52.630' (-157.8772) 0.0 0 49 1.0 2.88 2.97
11-19-2017 8:00:18 21o 18.893' ( 21.3149) 157o 52.631' (-157.8772) 0.0 0 50 0.8 3.51 2.97
11-19-2017 7:00:36 21o 18.893' ( 21.3149) 157o 52.630' (-157.8772) 0.0 0 51 0.6 3.51 2.97
11-19-2017 6:00:18 21o 18.898' ( 21.3150) 157o 52.634' (-157.8772) 0.1 0 49 2.4 3.51 2.97
11-19-2017 5:00:24 21o 18.896' ( 21.3149) 157o 52.630' (-157.8772) 0.0 0 47 0.8 3.51 2.94
11-19-2017 4:00:36 21o 18.895' ( 21.3149) 157o 52.631' (-157.8772) 0.0 0 49 0.8 3.51 2.97
11-19-2017 3:00:13 21o 18.892' ( 21.3149) 157o 52.629' (-157.8772) 0.1 0 48 3.4 3.57 3.03
11-19-2017 2:00:17 21o 18.895' ( 21.3149) 157o 52.629' (-157.8772) 0.0 0 47 1.0 3.54 3.03
11-19-2017 1:00:14 21o 18.895' ( 21.3149) 157o 52.630' (-157.8772) 0.0 0 48 1.0 3.57 3.03
11-19-2017 0:00:36 21o 18.895' ( 21.3149) 157o 52.632' (-157.8772) 0.0 0 47 0.8 3.54 3.03
11-18-2017 23:00:14 21o 18.895' ( 21.3149) 157o 52.631' (-157.8772) 0.0 0 46 1.0 3.54 3.06
11-18-2017 22:00:13 21o 18.895' ( 21.3149) 157o 52.629' (-157.8772) 0.0 0 47 0.8 3.54 3.06
11-18-2017 21:00:36 21o 18.895' ( 21.3149) 157o 52.630' (-157.8772) 0.0 0 47 0.6 3.54 3.03
11-18-2017 20:00:12 21o 18.895' ( 21.3149) 157o 52.632' (-157.8772) 0.0 0 50 2.2 3.51 3.03
11-18-2017 19:00:13 21o 18.894' ( 21.3149) 157o 52.633' (-157.8772) 0.0 0 47 1.0 3.54 3.03
11-18-2017 18:00:35 21o 18.895' ( 21.3149) 157o 52.633' (-157.8772) 0.1 0 47 1.0 3.54 3.03
11-18-2017 17:00:17 21o 18.891' ( 21.3148) 157o 52.629' (-157.8772) 0.0 0 46 1.6 3.54 3.00
11-18-2017 16:00:17 21o 18.892' ( 21.3149) 157o 52.632' (-157.8772) 0.0 0 48 1.0 3.51 3.00
11-18-2017 15:00:18 21o 18.896' ( 21.3149) 157o 52.631' (-157.8772) 0.1 0 49 1.0 3.54 3.03
11-18-2017 14:00:35 21o 18.892' ( 21.3149) 157o 52.630' (-157.8772) 0.0 0 49 0.8 3.51 2.97
11-18-2017 13:00:18 21o 18.895' ( 21.3149) 157o 52.630' (-157.8772) 0.1 0 50 1.8 3.51 2.61
11-18-2017 12:00:17 21o 18.889' ( 21.3148) 157o 52.630' (-157.8772) 2.5 0 50 0.8 3.51 3.00
11-18-2017 11:00:18 21o 18.894' ( 21.3149) 157o 52.630' (-157.8772) 0.0 0 49 0.8 3.51 2.97
11-18-2017 10:00:35 21o 18.895' ( 21.3149) 157o 52.630' (-157.8772) 0.0 0 48 0.6 3.51 2.97
11-18-2017 9:00:18 21o 18.896' ( 21.3149) 157o 52.633' (-157.8772) 0.4 27 50 1.6 2.88 2.97
11-18-2017 8:00:18 21o 18.894' ( 21.3149) 157o 52.630' (-157.8772) 0.0 0 50 0.8 3.51 2.97
11-18-2017 7:00:17 21o 18.893' ( 21.3149) 157o 52.630' (-157.8772) 0.0 0 50 1.0 3.51 2.97
11-18-2017 6:00:36 21o 18.893' ( 21.3149) 157o 52.632' (-157.8772) 0.0 0 48 0.8 3.51 2.94
11-18-2017 5:00:16 21o 18.893' ( 21.3149) 157o 52.629' (-157.8772) 0.0 0 48 1.6 3.51 2.97
11-18-2017 4:00:19 21o 18.895' ( 21.3149) 157o 52.630' (-157.8772) 0.0 0 47 1.0 2.85 2.91
11-18-2017 3:00:13 21o 18.895' ( 21.3149) 157o 52.631' (-157.8772) 0.0 0 47 0.6 3.57 2.94
11-18-2017 2:00:36 21o 18.895' ( 21.3149) 157o 52.630' (-157.8772) 0.0 0 48 0.6 3.54 3.00
11-18-2017 1:00:13 21o 18.895' ( 21.3149) 157o 52.630' (-157.8772) 0.0 0 48 1.6 3.57 3.03
11-18-2017 0:00:14 21o 18.895' ( 21.3149) 157o 52.630' (-157.8772) 0.0 0 47 1.0 3.54 3.03
11-17-2017 23:00:14 21o 18.895' ( 21.3149) 157o 52.629' (-157.8772) 0.0 0 46 0.8 3.54 3.06
11-17-2017 22:00:36 21o 18.895' ( 21.3149) 157o 52.629' (-157.8772) 0.0 0 46 0.6 3.54 3.00
11-17-2017 21:00:13 21o 18.896' ( 21.3149) 157o 52.629' (-157.8772) 0.1 0 46 2.6 3.57 3.03
11-17-2017 20:00:13 21o 18.895' ( 21.3149) 157o 52.633' (-157.8772) 0.0 0 50 1.4 3.57 3.06
11-17-2017 19:00:11 21o 18.895' ( 21.3149) 157o 52.631' (-157.8772) 0.0 0 47 1.0 3.54 3.03
11-17-2017 18:00:36 21o 18.892' ( 21.3149) 157o 52.631' (-157.8772) 0.0 0 48 0.6 3.54 2.97
11-17-2017 17:00:18 21o 18.895' ( 21.3149) 157o 52.632' (-157.8772) 0.0 0 48 1.4 3.51 2.97
11-17-2017 16:00:17 21o 18.896' ( 21.3149) 157o 52.632' (-157.8772) 0.0 0 48 1.6 3.51 3.00
11-17-2017 15:00:18 21o 18.893' ( 21.3149) 157o 52.631' (-157.8772) 0.1 0 49 1.0 3.51 2.97
11-17-2017 14:00:35 21o 18.894' ( 21.3149) 157o 52.630' (-157.8772) 0.0 0 49 0.8 3.51 2.97
11-17-2017 13:00:18 21o 18.891' ( 21.3148) 157o 52.630' (-157.8772) 0.1 0 51 1.8 3.51 2.97
11-17-2017 12:00:18 21o 18.893' ( 21.3149) 157o 52.629' (-157.8772) 0.1 0 48 0.8 3.51 2.97
11-17-2017 11:00:17 21o 18.893' ( 21.3149) 157o 52.632' (-157.8772) 0.0 0 50 0.6 3.51 2.94
11-17-2017 10:00:36 21o 18.895' ( 21.3149) 157o 52.630' (-157.8772) 0.0 0 48 0.6 2.88 2.94
11-17-2017 9:00:17 21o 18.891' ( 21.3148) 157o 52.629' (-157.8772) 0.0 0 51 1.6 3.51 2.70
11-17-2017 8:00:17 21o 18.893' ( 21.3149) 157o 52.629' (-157.8772) 0.0 0 49 0.8 3.54 2.97
11-17-2017 7:00:16 21o 18.895' ( 21.3149) 157o 52.630' (-157.8772) 0.0 0 49 1.0 3.54 2.97
11-17-2017 6:00:36 21o 18.895' ( 21.3149) 157o 52.632' (-157.8772) 0.0 0 48 0.8 3.54 2.94
11-17-2017 5:00:18 21o 18.896' ( 21.3149) 157o 52.630' (-157.8772) 0.0 0 48 1.6 3.51 2.97
11-17-2017 4:00:17 21o 18.896' ( 21.3149) 157o 52.630' (-157.8772) 0.4 0 49 1.0 3.51 2.97
11-17-2017 3:00:15 21o 18.896' ( 21.3149) 157o 52.629' (-157.8772) 0.0 0 47 0.8 3.57 2.97
11-17-2017 2:00:36 21o 18.895' ( 21.3149) 157o 52.630' (-157.8772) 0.0 0 48 0.6 3.54 2.97
11-17-2017 1:00:13 21o 18.893' ( 21.3149) 157o 52.627' (-157.8771) 0.0 0 49 2.0 3.54 3.00
11-17-2017 0:00:14 21o 18.895' ( 21.3149) 157o 52.629' (-157.8772) 0.0 0 47 1.2 3.57 3.03
11-16-2017 23:00:13 21o 18.895' ( 21.3149) 157o 52.627' (-157.8771) 0.0 0 47 1.0 3.54 3.00
11-16-2017 22:00:35 21o 18.895' ( 21.3149) 157o 52.629' (-157.8772) 0.1 0 46 0.8 3.54 3.03
11-16-2017 21:00:13 21o 18.896' ( 21.3149) 157o 52.632' (-157.8772) 0.0 0 47 1.6 3.57 3.06
11-16-2017 20:00:13 21o 18.895' ( 21.3149) 157o 52.632' (-157.8772) 0.0 0 50 1.0 3.54 3.03
11-16-2017 19:00:13 21o 18.894' ( 21.3149) 157o 52.632' (-157.8772) 0.0 0 47 0.8 3.57 3.03
11-16-2017 18:00:36 21o 18.895' ( 21.3149) 157o 52.630' (-157.8772) 0.0 0 46 0.6 3.54 3.00
11-16-2017 17:00:17 21o 18.893' ( 21.3149) 157o 52.630' (-157.8772) 0.0 0 49 2.2 3.54 2.67
11-16-2017 16:00:17 21o 18.895' ( 21.3149) 157o 52.630' (-157.8772) 0.0 0 48 0.8 3.51 2.97
11-16-2017 15:00:17 21o 18.893' ( 21.3149) 157o 52.631' (-157.8772) 0.0 0 48 0.8 3.51 2.97
11-16-2017 14:00:35 21o 18.895' ( 21.3149) 157o 52.632' (-157.8772) 0.0 0 49 0.8 2.88 3.00
11-16-2017 13:00:16 21o 18.893' ( 21.3149) 157o 52.632' (-157.8772) 0.0 0 49 2.0 3.51 2.94
11-16-2017 12:00:18 21o 18.895' ( 21.3149) 157o 52.630' (-157.8772) 0.0 0 48 0.8 3.51 2.97
11-16-2017 11:00:18 21o 18.895' ( 21.3149) 157o 52.630' (-157.8772) 0.0 0 49 0.8 3.51 2.97
11-16-2017 10:00:35 21o 18.895' ( 21.3149) 157o 52.630' (-157.8772) 0.0 0 49 0.6 3.51 2.94
11-16-2017 9:00:18 21o 18.891' ( 21.3148) 157o 52.627' (-157.8771) 0.0 0 50 1.6 3.51 2.88
11-16-2017 8:00:17 21o 18.895' ( 21.3149) 157o 52.630' (-157.8772) 0.5 0 48 0.8 3.51 2.85
11-16-2017 7:00:18 21o 18.895' ( 21.3149) 157o 52.631' (-157.8772) 0.0 0 49 0.8 3.51 2.91
11-16-2017 6:00:36 21o 18.896' ( 21.3149) 157o 52.632' (-157.8772) 0.0 0 45 0.8 2.85 2.97
11-16-2017 5:00:17 21o 18.895' ( 21.3149) 157o 52.629' (-157.8772) 0.0 0 48 1.6 3.51 2.94
11-16-2017 4:00:18 21o 18.895' ( 21.3149) 157o 52.631' (-157.8772) 0.0 0 48 1.0 3.54 2.97
11-16-2017 3:00:18 21o 18.898' ( 21.3150) 157o 52.632' (-157.8772) 0.0 0 48 0.8 3.57 2.97
11-16-2017 2:00:36 21o 18.898' ( 21.3150) 157o 52.629' (-157.8772) 0.0 0 48 0.6 3.54 2.97
11-16-2017 1:00:14 21o 18.895' ( 21.3149) 157o 52.630' (-157.8772) 0.1 0 48 2.0 3.54 3.00
11-16-2017 0:00:14 21o 18.896' ( 21.3149) 157o 52.629' (-157.8772) 0.0 0 48 1.2 3.57 2.97
11-15-2017 23:00:14 21o 18.898' ( 21.3150) 157o 52.629' (-157.8772) 0.0 0 47 0.8 3.57 3.00
11-15-2017 22:00:35 21o 18.895' ( 21.3149) 157o 52.629' (-157.8772) 0.1 0 46 0.8 3.54 3.00
11-15-2017 21:00:11 21o 18.901' ( 21.3150) 157o 52.638' (-157.8773) 0.1 0 48 1.8 3.54 2.97
11-15-2017 20:00:15 21o 18.895' ( 21.3149) 157o 52.632' (-157.8772) 0.0 0 51 2.2 3.51 3.00
11-15-2017 19:00:13 21o 18.895' ( 21.3149) 157o 52.630' (-157.8772) 0.1 0 46 1.4 3.57 2.97
11-15-2017 18:00:36 21o 18.895' ( 21.3149) 157o 52.629' (-157.8772) 0.0 0 47 0.8 3.54 3.00
11-15-2017 17:00:17 21o 18.893' ( 21.3149) 157o 52.633' (-157.8772) 2.3 0 46 1.0 3.54 3.00
11-15-2017 16:00:17 21o 18.893' ( 21.3149) 157o 52.631' (-157.8772) 0.0 0 46 1.0 3.51 2.94
11-15-2017 15:00:36 21o 18.893' ( 21.3149) 157o 52.630' (-157.8772) 0.0 0 49 0.8 3.51 3.00
11-15-2017 14:00:16 21o 18.892' ( 21.3149) 157o 52.634' (-157.8772) 0.0 0 48 1.6 3.54 2.64
11-15-2017 13:00:18 21o 18.892' ( 21.3149) 157o 52.629' (-157.8772) 0.0 0 50 1.0 3.51 2.97
11-15-2017 12:00:36 21o 18.893' ( 21.3149) 157o 52.630' (-157.8772) 0.0 0 48 1.4 3.51 2.94
11-15-2017 11:00:17 21o 18.892' ( 21.3149) 157o 52.634' (-157.8772) 0.0 0 50 1.2 2.88 3.00
11-15-2017 10:00:17 21o 18.893' ( 21.3149) 157o 52.630' (-157.8772) 0.0 0 48 0.8 3.51 3.00
11-15-2017 9:00:36 21o 18.896' ( 21.3149) 157o 52.630' (-157.8772) 0.0 0 50 0.8 3.51 2.97
11-15-2017 8:00:18 21o 18.893' ( 21.3149) 157o 52.627' (-157.8771) 0.0 0 49 1.0 3.51 2.97
11-15-2017 7:00:18 21o 18.895' ( 21.3149) 157o 52.634' (-157.8772) 0.0 0 50 0.8 3.51 2.94
11-15-2017 6:00:36 21o 18.893' ( 21.3149) 157o 52.630' (-157.8772) 0.0 0 47 1.6 3.51 2.97
11-15-2017 5:00:18 21o 18.899' ( 21.3150) 157o 52.621' (-157.8770) 0.0 0 48 3.8 3.51 2.94
11-15-2017 4:00:17 21o 18.895' ( 21.3149) 157o 52.630' (-157.8772) 0.0 0 48 1.4 3.51 2.88
11-15-2017 3:00:17 21o 18.895' ( 21.3149) 157o 52.630' (-157.8772) 0.0 0 48 1.0 3.54 2.91
11-15-2017 2:00:36 21o 18.896' ( 21.3149) 157o 52.630' (-157.8772) 0.0 0 49 0.8 3.54 2.94
11-15-2017 1:00:14 21o 18.895' ( 21.3149) 157o 52.630' (-157.8772) 0.0 0 49 2.0 3.57 2.97
11-15-2017 0:00:14 21o 18.895' ( 21.3149) 157o 52.632' (-157.8772) 0.0 0 48 1.0 3.54 2.94
11-14-2017 23:00:13 21o 18.896' ( 21.3149) 157o 52.627' (-157.8771) 0.0 0 48 0.8 3.57 2.97
11-14-2017 22:00:35 21o 18.894' ( 21.3149) 157o 52.629' (-157.8772) 0.0 0 46 0.8 3.54 3.00
11-14-2017 21:00:13 21o 18.901' ( 21.3150) 157o 52.636' (-157.8773) 0.1 0 48 1.8 3.54 3.00
11-14-2017 20:00:11 21o 18.892' ( 21.3149) 157o 52.628' (-157.8771) 0.0 0 51 2.2 3.54 3.00
11-14-2017 19:00:11 21o 18.895' ( 21.3149) 157o 52.632' (-157.8772) 0.0 0 47 0.8 3.54 3.00
11-14-2017 18:00:36 21o 18.894' ( 21.3149) 157o 52.630' (-157.8772) 0.0 0 49 0.6 3.54 2.94
11-14-2017 17:00:17 21o 18.893' ( 21.3149) 157o 52.633' (-157.8772) 0.0 0 47 1.2 3.54 2.97
11-14-2017 16:00:16 21o 18.895' ( 21.3149) 157o 52.631' (-157.8772) 0.0 0 47 1.0 3.51 2.97
11-14-2017 15:00:18 21o 18.895' ( 21.3149) 157o 52.630' (-157.8772) 0.0 0 50 0.8 3.48 2.97
11-14-2017 14:00:36 21o 18.893' ( 21.3149) 157o 52.630' (-157.8772) 0.0 0 51 0.8 3.51 2.97
11-14-2017 13:00:18 21o 18.894' ( 21.3149) 157o 52.630' (-157.8772) 0.1 0 51 2.2 3.51 2.97
11-14-2017 12:00:18 21o 18.892' ( 21.3149) 157o 52.629' (-157.8772) 0.0 0 50 1.0 3.51 2.70
11-14-2017 11:00:17 21o 18.894' ( 21.3149) 157o 52.632' (-157.8772) 0.0 0 49 0.8 3.51 2.97
11-14-2017 10:00:36 21o 18.893' ( 21.3149) 157o 52.633' (-157.8772) 0.0 0 48 0.6 3.51 2.97
11-14-2017 9:00:17 21o 18.895' ( 21.3149) 157o 52.634' (-157.8772) 0.3 327 49 2.8 3.51 2.97
11-14-2017 8:00:18 21o 18.891' ( 21.3148) 157o 52.629' (-157.8772) 0.0 0 52 1.0 3.51 2.94
11-14-2017 7:00:18 21o 18.893' ( 21.3149) 157o 52.630' (-157.8772) 0.0 0 49 1.0 3.51 2.94
11-14-2017 6:00:36 21o 18.897' ( 21.3149) 157o 52.634' (-157.8772) 0.0 0 47 0.8 3.51 2.94
11-14-2017 5:00:18 21o 18.895' ( 21.3149) 157o 52.629' (-157.8772) 0.0 0 48 2.2 3.51 2.94
11-14-2017 4:00:17 21o 18.894' ( 21.3149) 157o 52.629' (-157.8772) 0.0 0 48 1.0 3.51 2.91
11-14-2017 3:00:18 21o 18.895' ( 21.3149) 157o 52.631' (-157.8772) 0.0 0 48 1.0 3.54 2.88
11-14-2017 2:00:36 21o 18.895' ( 21.3149) 157o 52.630' (-157.8772) 0.0 0 48 0.8 3.54 2.88
11-14-2017 1:00:16 21o 18.893' ( 21.3149) 157o 52.629' (-157.8772) 0.1 0 49 2.0 3.51 2.91
11-14-2017 0:00:13 21o 18.895' ( 21.3149) 157o 52.632' (-157.8772) 0.0 0 48 1.0 3.54 2.94
11-13-2017 23:00:13 21o 18.895' ( 21.3149) 157o 52.629' (-157.8772) 0.0 0 46 1.0 3.54 2.94
11-13-2017 22:00:35 21o 18.896' ( 21.3149) 157o 52.630' (-157.8772) 0.1 0 46 0.8 3.54 2.94
11-13-2017 21:00:13 21o 18.896' ( 21.3149) 157o 52.634' (-157.8772) 0.1 0 50 1.8 3.57 3.03
11-13-2017 20:00:13 21o 18.895' ( 21.3149) 157o 52.630' (-157.8772) 0.0 0 50 1.0 3.54 2.97
11-13-2017 19:00:11 21o 18.893' ( 21.3149) 157o 52.629' (-157.8772) 0.0 0 48 0.8 3.57 3.00
11-13-2017 18:00:36 21o 18.893' ( 21.3149) 157o 52.629' (-157.8772) 0.0 0 47 0.6 3.54 2.94
11-13-2017 17:00:17 21o 18.893' ( 21.3149) 157o 52.631' (-157.8772) 0.0 0 48 1.2 3.54 2.94
11-13-2017 16:00:18 21o 18.892' ( 21.3149) 157o 52.630' (-157.8772) 0.0 0 47 1.0 3.51 2.97
11-13-2017 15:00:18 21o 18.895' ( 21.3149) 157o 52.632' (-157.8772) 0.0 0 49 0.8 3.51 2.64
11-13-2017 14:00:36 21o 18.893' ( 21.3149) 157o 52.630' (-157.8772) 0.0 0 50 0.6 3.51 2.94
11-13-2017 13:00:17 21o 18.893' ( 21.3149) 157o 52.632' (-157.8772) 0.6 0 51 2.2 3.51 2.61
11-13-2017 12:00:17 21o 18.893' ( 21.3149) 157o 52.629' (-157.8772) 0.0 0 51 0.8 3.51 2.94
11-13-2017 11:00:18 21o 18.894' ( 21.3149) 157o 52.634' (-157.8772) 0.0 0 50 1.0 3.51 2.97
11-13-2017 10:00:35 21o 18.893' ( 21.3149) 157o 52.632' (-157.8772) 0.0 0 48 0.6 3.51 2.73
11-13-2017 9:00:17 21o 18.895' ( 21.3149) 157o 52.638' (-157.8773) 0.5 330 50 4.6 3.51 2.94
11-13-2017 8:00:18 21o 18.895' ( 21.3149) 157o 52.629' (-157.8772) 0.0 0 51 1.0 3.51 2.94
11-13-2017 7:00:18 21o 18.893' ( 21.3149) 157o 52.631' (-157.8772) 0.0 0 48 0.8 3.51 2.97
11-13-2017 6:00:36 21o 18.893' ( 21.3149) 157o 52.632' (-157.8772) 0.0 0 47 1.0 3.51 2.94
11-13-2017 5:00:16 21o 18.895' ( 21.3149) 157o 52.632' (-157.8772) 0.8 0 48 2.2 3.51 2.94
11-13-2017 4:00:17 21o 18.892' ( 21.3149) 157o 52.630' (-157.8772) 0.0 0 48 1.0 3.51 2.85
11-13-2017 3:00:13 21o 18.894' ( 21.3149) 157o 52.630' (-157.8772) 0.0 0 49 0.8 3.54 2.88
11-13-2017 2:00:36 21o 18.895' ( 21.3149) 157o 52.630' (-157.8772) 0.0 0 49 0.6 3.54 2.85